createdAt,value
2022-10-30T00:02:08.207Z,95694.31
2022-10-30T00:04:55.009Z,95685.78
2022-10-30T00:07:28.087Z,95680.66
2022-10-30T00:10:14.979Z,95684.06
2022-10-30T00:12:48.053Z,95684.91
2022-10-30T00:15:35.017Z,95690.84
2022-10-30T00:18:09.068Z,95690.84
2022-10-30T00:20:56.027Z,95695.97
2022-10-30T00:23:35.974Z,95697.69
2022-10-30T00:26:31.995Z,95688.31
2022-10-30T00:29:18.991Z,95690.84
2022-10-30T00:31:52.082Z,95687.47
2022-10-30T00:34:38.999Z,95687.44
2022-10-30T00:37:12.089Z,95683.19
2022-10-30T00:39:59.014Z,95687.44
2022-10-30T00:42:37.067Z,95693.44
2022-10-30T00:45:25.013Z,95691.75
2022-10-30T00:48:08.066Z,95700.25
2022-10-30T00:50:55.009Z,95691.75
2022-10-30T00:53:29.091Z,95695.19
2022-10-30T00:56:26.024Z,95698.56
2022-10-30T00:59:17.015Z,95692.63
2022-10-30T01:01:53.174Z,95681.56
2022-10-30T01:04:45.034Z,95676.44
2022-10-30T01:07:22.170Z,95667.94
2022-10-30T01:10:09.013Z,95672.19
2022-10-30T01:12:49.011Z,95675.59
2022-10-30T01:15:41.015Z,95667.09
2022-10-30T01:18:44.037Z,95674.78
2022-10-30T01:21:39.058Z,95677.34
2022-10-30T01:24:47.035Z,95677.34
2022-10-30T01:27:40.015Z,95684.16
2022-10-30T01:30:32.111Z,95679.09
2022-10-30T01:33:38.009Z,95681.63
2022-10-30T01:36:21.115Z,95685.91
2022-10-30T01:39:22.034Z,95681.63
2022-10-30T01:42:02.050Z,95675.69
2022-10-30T01:44:49.041Z,95679.91
2022-10-30T01:48:04.092Z,95680.78
2022-10-30T01:51:16.038Z,95685.06
2022-10-30T01:54:11.031Z,95677.38
2022-10-30T01:57:24.038Z,95670.59
2022-10-30T02:00:27.038Z,95671.47
2022-10-30T02:03:14.047Z,95672.31
2022-10-30T02:06:04.031Z,95671.47
2022-10-30T02:08:58.047Z,95667.22
2022-10-30T02:11:45.047Z,95665.50
2022-10-30T02:14:21.136Z,95661.22
2022-10-30T02:17:11.043Z,95669.75
2022-10-30T02:19:51.106Z,95675.69
2022-10-30T02:22:31.117Z,95674.84
2022-10-30T02:25:11.208Z,95673.16
2022-10-30T02:27:51.063Z,95659.53
2022-10-30T02:30:31.191Z,95652.72
2022-10-30T02:33:11.088Z,95661.25
2022-10-30T02:35:51.209Z,95671.47
2022-10-30T02:38:31.053Z,95657.84
2022-10-30T02:41:11.135Z,95667.25
2022-10-30T02:43:51.053Z,95657.88
2022-10-30T02:46:31.132Z,95654.47
2022-10-30T02:49:11.075Z,95645.09
2022-10-30T02:51:51.130Z,95653.63
2022-10-30T02:54:31.095Z,95646.84
2022-10-30T02:57:18.068Z,95654.50
2022-10-30T03:00:05.106Z,95644.31
2022-10-30T03:02:45.113Z,95665.59
2022-10-30T03:05:39.073Z,95654.56
2022-10-30T03:08:33.090Z,95660.50
2022-10-30T03:11:23.057Z,95656.22
2022-10-30T03:13:57.179Z,95662.22
2022-10-30T03:16:45.066Z,95657.09
2022-10-30T03:19:18.132Z,95660.50
2022-10-30T03:22:05.069Z,95668.13
2022-10-30T03:24:38.300Z,95653.66
2022-10-30T03:27:25.077Z,95640.03
2022-10-30T03:29:58.164Z,95643.44
2022-10-30T03:32:45.110Z,95650.25
2022-10-30T03:35:25.079Z,95658.75
2022-10-30T03:38:12.082Z,95661.31
2022-10-30T03:40:52.094Z,95651.94
2022-10-30T03:43:46.078Z,95653.63
2022-10-30T03:46:33.086Z,95656.16
2022-10-30T03:49:06.153Z,95658.72
2022-10-30T03:51:53.086Z,95658.69
2022-10-30T03:54:26.164Z,95667.25
2022-10-30T03:57:20.083Z,95668.94
2022-10-30T04:00:14.095Z,95673.19
2022-10-30T04:03:01.282Z,95658.72
2022-10-30T04:05:35.184Z,95668.97
2022-10-30T04:08:22.099Z,95651.94
2022-10-30T04:10:55.262Z,95651.09
2022-10-30T04:13:42.104Z,95655.38
2022-10-30T04:16:15.321Z,95659.63
2022-10-30T04:19:02.122Z,95654.53
2022-10-30T04:21:35.165Z,95647.72
2022-10-30T04:24:24.089Z,95656.22
2022-10-30T04:26:57.182Z,95650.25
2022-10-30T04:29:44.109Z,95651.13
2022-10-30T04:32:24.132Z,95640.91
2022-10-30T04:35:18.101Z,95643.44
2022-10-30T04:38:14.146Z,95637.47
2022-10-30T04:41:01.115Z,95638.34
2022-10-30T04:43:41.091Z,95643.44
2022-10-30T04:46:28.118Z,95646.00
2022-10-30T04:49:01.177Z,95640.00
2022-10-30T04:51:48.118Z,95629.78
2022-10-30T04:54:29.110Z,95632.34
2022-10-30T04:57:23.134Z,95640.00
2022-10-30T05:00:14.127Z,95627.25
2022-10-30T05:02:47.188Z,95624.72
2022-10-30T05:05:35.127Z,95624.75
2022-10-30T05:08:08.187Z,95623.03
2022-10-30T05:10:55.122Z,95617.97
2022-10-30T05:13:36.136Z,95621.38
2022-10-30T05:16:30.120Z,95629.91
2022-10-30T05:19:17.155Z,95624.81
2022-10-30T05:21:50.265Z,95630.78
2022-10-30T05:24:37.144Z,95632.47
2022-10-30T05:27:10.227Z,95629.94
2022-10-30T05:29:57.142Z,95622.28
2022-10-30T05:32:30.228Z,95623.13
2022-10-30T05:35:17.142Z,95635.03
2022-10-30T05:37:57.142Z,95629.09
2022-10-30T05:40:51.147Z,95637.59
2022-10-30T05:43:45.150Z,95641.00
2022-10-30T05:46:32.129Z,95636.75
2022-10-30T05:49:05.204Z,95646.13
2022-10-30T05:51:52.156Z,95645.25
2022-10-30T05:54:32.135Z,95644.38
2022-10-30T05:57:26.186Z,95649.50
2022-10-30T06:00:21.143Z,95642.69
2022-10-30T06:03:13.165Z,95639.28
2022-10-30T06:05:53.151Z,95646.09
2022-10-30T06:08:47.176Z,95647.81
2022-10-30T06:11:34.162Z,95657.16
2022-10-30T06:14:14.150Z,95654.59
2022-10-30T06:17:08.161Z,95653.75
2022-10-30T06:19:55.153Z,95662.28
2022-10-30T06:22:28.286Z,95652.91
2022-10-30T06:25:15.165Z,95663.13
2022-10-30T06:27:55.198Z,95650.38
2022-10-30T06:30:49.173Z,95651.22
2022-10-30T06:33:43.161Z,95647.78
2022-10-30T06:36:30.170Z,95652.06
2022-10-30T06:39:10.209Z,95652.06
2022-10-30T06:42:06.173Z,95652.94
2022-10-30T06:44:53.179Z,95652.06
2022-10-30T06:47:26.223Z,95668.25
2022-10-30T06:50:14.161Z,95665.69
2022-10-30T06:52:48.273Z,95664.81
2022-10-30T06:55:35.170Z,95664.81
2022-10-30T06:58:15.171Z,95669.94
2022-10-30T07:01:09.196Z,95674.16
2022-10-30T07:03:56.178Z,95671.63
2022-10-30T07:06:36.159Z,95671.63
2022-10-30T07:09:23.172Z,95666.50
2022-10-30T07:11:57.020Z,95663.09
2022-10-30T07:14:44.177Z,95663.09
2022-10-30T07:17:24.254Z,95669.06
2022-10-30T07:20:11.164Z,95673.31
2022-10-30T07:22:45.293Z,95664.75
2022-10-30T07:25:32.172Z,95669.88
2022-10-30T07:28:05.278Z,95670.69
2022-10-30T07:30:52.194Z,95668.13
2022-10-30T07:33:25.357Z,95674.94
2022-10-30T07:36:12.181Z,95672.38
2022-10-30T07:38:45.251Z,95674.91
2022-10-30T07:41:32.207Z,95674.03
2022-10-30T07:44:05.265Z,95668.94
2022-10-30T07:46:52.218Z,95670.59
2022-10-30T07:49:25.304Z,95668.00
2022-10-30T07:52:16.358Z,95667.13
2022-10-30T07:54:57.368Z,95665.44
2022-10-30T07:57:52.258Z,95656.03
2022-10-30T08:00:39.221Z,95654.31
2022-10-30T08:03:12.686Z,95653.44
2022-10-30T08:05:59.293Z,95651.72
2022-10-30T08:08:32.674Z,95655.94
2022-10-30T08:11:19.181Z,95650.78
2022-10-30T08:13:52.313Z,95646.47
2022-10-30T08:16:39.212Z,95649.88
2022-10-30T08:19:12.280Z,95648.13
2022-10-30T08:22:00.122Z,95643.00
2022-10-30T08:24:33.282Z,95643.00
2022-10-30T08:27:20.226Z,95642.97
2022-10-30T08:29:53.316Z,95647.22
2022-10-30T08:32:40.218Z,95647.13
2022-10-30T08:35:20.460Z,95653.91
2022-10-30T08:38:14.214Z,95647.91
2022-10-30T08:41:01.210Z,95650.41
2022-10-30T08:43:34.270Z,95651.25
2022-10-30T08:46:21.243Z,95646.88
2022-10-30T08:48:55.595Z,95638.28
2022-10-30T08:51:42.239Z,95648.44
2022-10-30T08:54:16.286Z,95648.41
2022-10-30T08:57:10.227Z,95646.75
2022-10-30T08:59:57.250Z,95647.63
2022-10-30T09:02:30.396Z,95647.53
2022-10-30T09:05:17.266Z,95650.06
2022-10-30T09:07:50.292Z,95650.88
2022-10-30T09:10:37.236Z,95643.09
2022-10-30T09:13:10.337Z,95646.44
2022-10-30T09:15:57.242Z,95636.94
2022-10-30T09:18:30.316Z,95635.09
2022-10-30T09:21:17.232Z,95625.63
2022-10-30T09:23:51.298Z,95624.59
2022-10-30T09:26:38.248Z,95615.84
2022-10-30T09:29:18.242Z,95625.94
2022-10-30T09:32:06.253Z,95627.50
2022-10-30T09:34:39.700Z,95626.50
2022-10-30T09:37:26.254Z,95625.53
2022-10-30T09:40:06.257Z,95627.22
2022-10-30T09:43:01.236Z,95618.63
2022-10-30T09:46:09.258Z,95618.56
2022-10-30T09:52:17.248Z,95615.09
2022-10-30T09:55:49.256Z,95611.66
2022-10-30T09:58:47.262Z,95609.94
2022-10-30T10:01:53.332Z,95609.09
2022-10-30T10:04:53.264Z,95599.69
2022-10-30T10:07:44.249Z,95607.31
2022-10-30T10:10:49.259Z,95603.03
2022-10-30T10:13:52.259Z,95596.19
2022-10-30T10:16:43.317Z,95603.84
2022-10-30T10:19:41.322Z,95605.50
2022-10-30T10:22:47.293Z,95596.97
2022-10-30T10:25:23.356Z,95592.66
2022-10-30T10:28:18.255Z,95590.91
2022-10-30T10:31:06.346Z,95578.06
2022-10-30T10:34:11.329Z,95581.41
2022-10-30T10:37:36.279Z,95579.69
2022-10-30T10:40:59.272Z,95574.53
2022-10-30T10:44:14.281Z,95567.56
2022-10-30T10:47:18.267Z,95569.22
2022-10-30T10:50:26.310Z,95570.81
2022-10-30T10:53:10.258Z,95570.75
2022-10-30T10:56:07.296Z,95573.28
2022-10-30T10:59:53.272Z,95570.66
2022-10-30T11:02:42.511Z,95558.50
2022-10-30T11:05:53.278Z,95567.81
2022-10-30T11:08:47.296Z,95561.72
2022-10-30T11:11:41.304Z,95557.25
2022-10-30T11:14:31.273Z,95557.13
2022-10-30T11:17:49.281Z,95549.34
2022-10-30T11:20:48.269Z,95540.63
2022-10-30T11:23:55.291Z,95537.09
2022-10-30T11:26:42.284Z,95532.69
2022-10-30T11:29:28.295Z,95545.44
2022-10-30T11:32:26.307Z,95541.94
2022-10-30T11:35:14.393Z,95533.28
2022-10-30T11:38:26.296Z,95534.94
2022-10-30T11:40:59.378Z,95531.38
2022-10-30T11:43:48.317Z,95523.59
2022-10-30T11:46:29.426Z,95525.25
2022-10-30T11:49:32.297Z,95525.16
2022-10-30T11:52:06.373Z,95527.56
2022-10-30T11:54:55.318Z,95525.72
2022-10-30T11:57:47.318Z,95523.94
2022-10-30T12:00:38.327Z,95524.66
2022-10-30T12:03:11.374Z,95524.56
2022-10-30T12:05:58.315Z,95520.97
2022-10-30T12:08:31.388Z,95518.25
2022-10-30T12:11:18.317Z,95513.78
2022-10-30T12:13:58.340Z,95510.19
2022-10-30T12:16:52.313Z,95508.31
2022-10-30T12:19:37.327Z,95521.09
2022-10-30T12:22:48.324Z,95522.81
2022-10-30T12:25:37.317Z,95519.22
2022-10-30T12:28:19.422Z,95518.38
2022-10-30T12:31:21.329Z,95518.34
2022-10-30T12:34:03.468Z,95525.13
2022-10-30T12:36:56.327Z,95514.75
2022-10-30T12:39:50.345Z,95523.28
2022-10-30T12:42:41.346Z,95513.91
2022-10-30T12:45:29.337Z,95522.38
2022-10-30T12:48:33.338Z,95517.22
2022-10-30T12:51:35.355Z,95515.53
2022-10-30T12:54:44.334Z,95512.06
2022-10-30T12:57:42.341Z,95515.53
2022-10-30T13:00:29.361Z,95514.75
2022-10-30T13:03:21.443Z,95517.28
2022-10-30T13:06:16.362Z,95518.09
2022-10-30T13:09:15.417Z,95522.34
2022-10-30T13:12:11.372Z,95518.97
2022-10-30T13:15:07.472Z,95516.38
2022-10-30T13:17:54.353Z,95518.94
2022-10-30T13:20:28.469Z,95518.94
2022-10-30T13:23:25.343Z,95522.44
2022-10-30T13:26:22.376Z,95531.09
2022-10-30T13:29:40.351Z,95528.56
2022-10-30T13:32:35.403Z,95525.19
2022-10-30T13:35:47.364Z,95526.13
2022-10-30T13:39:05.363Z,95522.69
2022-10-30T13:42:17.367Z,95516.78
2022-10-30T13:45:37.396Z,95523.75
2022-10-30T13:48:33.471Z,95518.72
2022-10-30T13:51:23.384Z,95524.81
2022-10-30T13:54:31.377Z,95529.19
2022-10-30T13:57:40.374Z,95534.50
2022-10-30T14:00:38.371Z,95532.88
2022-10-30T14:03:46.364Z,95533.00
2022-10-30T14:06:55.366Z,95537.44
2022-10-30T14:10:09.360Z,95542.72
2022-10-30T14:13:02.573Z,95543.72
2022-10-30T14:15:41.443Z,95546.41
2022-10-30T14:18:31.392Z,95554.25
2022-10-30T14:21:51.370Z,95548.38
2022-10-30T14:24:40.386Z,95553.59
2022-10-30T14:27:20.389Z,95555.41
2022-10-30T14:30:14.386Z,95555.50
2022-10-30T14:33:02.410Z,95561.59
2022-10-30T14:35:41.517Z,95567.66
2022-10-30T14:38:31.388Z,95573.72
2022-10-30T14:41:40.385Z,95567.88
2022-10-30T14:45:08.400Z,95574.00
2022-10-30T14:48:06.459Z,95576.69
2022-10-30T14:50:56.394Z,95575.13
2022-10-30T14:53:59.387Z,95570.09
2022-10-30T14:56:55.413Z,95571.94
2022-10-30T14:59:49.394Z,95576.34
2022-10-30T15:02:59.421Z,95574.78
2022-10-30T15:05:50.442Z,95572.34
2022-10-30T15:08:53.398Z,95573.28
2022-10-30T15:11:53.403Z,95570.88
2022-10-30T15:14:40.722Z,95565.84
2022-10-30T15:17:48.415Z,95572.81
2022-10-30T15:20:38.411Z,95576.41
2022-10-30T15:23:36.410Z,95573.97
2022-10-30T15:26:19.401Z,95574.09
2022-10-30T15:29:07.429Z,95575.94
2022-10-30T15:31:47.440Z,95573.47
2022-10-30T15:34:42.411Z,95572.69
2022-10-30T15:37:29.428Z,95569.44
2022-10-30T15:40:22.492Z,95572.16
2022-10-30T15:43:12.426Z,95572.31
2022-10-30T15:45:49.545Z,95572.44
2022-10-30T15:48:44.435Z,95570.00
2022-10-30T15:51:31.434Z,95570.06
2022-10-30T15:54:27.415Z,95572.69
2022-10-30T16:00:45.421Z,95574.63
2022-10-30T16:03:43.190Z,95569.59
2022-10-30T16:06:37.423Z,95572.22
2022-10-30T16:09:11.502Z,95571.38
2022-10-30T16:12:02.430Z,95574.00
2022-10-30T16:14:44.455Z,95583.47
2022-10-30T16:17:39.444Z,95589.53
2022-10-30T16:20:26.433Z,95590.41
2022-10-30T16:22:59.638Z,95597.31
2022-10-30T16:25:47.669Z,95594.81
2022-10-30T16:28:37.556Z,95596.56
2022-10-30T16:31:26.449Z,95601.72
2022-10-30T16:34:07.452Z,95604.34
2022-10-30T16:36:54.448Z,95601.78
2022-10-30T16:39:28.559Z,95600.06
2022-10-30T16:42:28.463Z,95595.84
2022-10-30T16:45:24.563Z,95598.44
2022-10-30T16:48:22.470Z,95595.84
2022-10-30T16:50:55.521Z,95595.84
2022-10-30T16:53:42.463Z,95595.84
2022-10-30T16:56:27.564Z,95598.38
2022-10-30T16:59:21.457Z,95596.66
2022-10-30T17:02:05.737Z,95597.50
2022-10-30T17:04:58.207Z,95597.50
2022-10-30T17:07:32.550Z,95593.22
2022-10-30T17:10:42.459Z,95596.63
2022-10-30T17:13:41.471Z,95603.50
2022-10-30T17:16:28.466Z,95606.03
2022-10-30T17:19:13.474Z,95608.56
2022-10-30T17:22:00.478Z,95607.75
2022-10-30T17:24:44.712Z,95614.53
2022-10-30T17:27:46.051Z,95617.97
2022-10-30T17:30:47.457Z,95619.69
2022-10-30T17:33:49.483Z,95618.84
2022-10-30T17:36:36.539Z,95609.47
2022-10-30T17:39:10.667Z,95618.84
2022-10-30T17:42:01.471Z,95615.41
2022-10-30T17:44:37.542Z,95615.41
2022-10-30T17:47:26.492Z,95612.91
2022-10-30T17:50:00.289Z,95606.06
2022-10-30T17:52:47.497Z,95616.28
2022-10-30T17:55:34.543Z,95612.03
2022-10-30T17:58:21.486Z,95610.34
2022-10-30T18:00:57.698Z,95615.41
2022-10-30T18:03:44.489Z,95612.00
2022-10-30T18:06:33.504Z,95603.50
2022-10-30T18:09:27.485Z,95613.75
2022-10-30T18:12:19.506Z,95618.88
2022-10-30T18:14:52.610Z,95621.41
2022-10-30T18:17:39.481Z,95611.19
2022-10-30T18:20:13.596Z,95610.34
2022-10-30T18:23:02.067Z,95613.75
2022-10-30T18:25:46.505Z,95613.78
2022-10-30T18:28:40.491Z,95606.13
2022-10-30T18:31:30.506Z,95606.97
2022-10-30T18:34:10.504Z,95611.22
2022-10-30T18:36:57.489Z,95616.31
2022-10-30T18:39:33.604Z,95610.34
2022-10-30T18:42:20.547Z,95607.78
2022-10-30T18:44:53.612Z,95612.94
2022-10-30T18:47:40.508Z,95615.50
2022-10-30T18:50:14.586Z,95609.53
2022-10-30T18:53:01.514Z,95615.50
2022-10-30T18:55:52.507Z,95616.34
2022-10-30T18:58:46.510Z,95615.50
2022-10-30T19:01:33.727Z,95619.78
2022-10-30T19:04:07.606Z,95616.41
2022-10-30T19:06:54.515Z,95611.28
2022-10-30T19:09:34.507Z,95612.13
2022-10-30T19:12:28.621Z,95611.28
2022-10-30T19:15:39.699Z,95615.56
2022-10-30T19:18:20.518Z,95606.16
2022-10-30T19:21:11.623Z,95607.88
2022-10-30T19:23:48.636Z,95604.47
2022-10-30T19:26:35.520Z,95607.06
2022-10-30T19:29:15.527Z,95601.97
2022-10-30T19:32:02.544Z,95604.53
2022-10-30T19:34:42.519Z,95601.97
2022-10-30T19:37:36.554Z,95604.53
2022-10-30T19:40:33.527Z,95601.97
2022-10-30T19:43:20.537Z,95611.31
2022-10-30T19:45:55.475Z,95607.09
2022-10-30T19:48:59.206Z,95604.56
2022-10-30T19:51:40.550Z,95609.69
2022-10-30T19:54:27.545Z,95606.28
2022-10-30T19:57:07.590Z,95609.69
2022-10-30T19:59:54.531Z,95613.91
2022-10-30T20:02:28.246Z,95606.25
2022-10-30T20:05:18.553Z,95607.13
2022-10-30T20:08:12.710Z,95606.28
2022-10-30T20:11:00.539Z,95608.88
2022-10-30T20:13:41.547Z,95604.59
2022-10-30T20:16:35.562Z,95608.03
2022-10-30T20:19:41.543Z,95612.31
2022-10-30T20:22:35.522Z,95609.78
2022-10-30T20:25:29.562Z,95609.81
2022-10-30T20:28:40.555Z,95608.13
2022-10-30T20:31:34.555Z,95605.59
2022-10-30T20:34:21.557Z,95606.44
2022-10-30T20:37:01.553Z,95605.59
2022-10-30T20:39:55.585Z,95605.59
2022-10-30T20:42:42.619Z,95611.59
2022-10-30T20:45:31.552Z,95611.56
2022-10-30T20:48:18.576Z,95611.56
2022-10-30T20:50:58.567Z,95611.56
2022-10-30T20:53:52.551Z,95610.75
2022-10-30T20:56:39.566Z,95607.38
2022-10-30T20:59:19.571Z,95603.09
2022-10-30T21:02:06.751Z,95601.44
2022-10-30T21:04:39.645Z,95602.28
2022-10-30T21:07:29.605Z,95604.81
2022-10-30T21:10:02.646Z,95606.50
2022-10-30T21:12:49.615Z,95610.78
2022-10-30T21:15:24.057Z,95606.53
2022-10-30T21:18:10.581Z,95613.34
2022-10-30T21:20:43.651Z,95605.69
2022-10-30T21:23:30.585Z,95603.97
2022-10-30T21:26:12.642Z,95610.81
2022-10-30T21:28:59.905Z,95601.47
2022-10-30T21:31:40.566Z,95604.03
2022-10-30T21:34:27.594Z,95613.41
2022-10-30T21:37:00.688Z,95610.84
2022-10-30T21:39:48.586Z,95615.13
2022-10-30T21:45:27.575Z,95617.66
2022-10-30T21:48:14.599Z,95616.00
2022-10-30T21:50:47.654Z,95605.75
2022-10-30T21:53:34.610Z,95608.34
2022-10-30T21:56:13.701Z,95598.16
2022-10-30T21:59:13.613Z,95602.44
2022-10-30T22:02:07.645Z,95599.91
2022-10-30T22:04:54.600Z,95599.91
2022-10-30T22:07:27.735Z,95599.06
2022-10-30T22:10:14.607Z,95592.22
2022-10-30T22:12:54.621Z,95593.94
2022-10-30T22:15:48.605Z,95590.56
2022-10-30T22:18:35.583Z,95596.56
2022-10-30T22:21:14.764Z,95590.59
2022-10-30T22:24:01.607Z,95589.72
2022-10-30T22:26:34.674Z,95588.03
2022-10-30T22:29:21.600Z,95587.19
2022-10-30T22:31:57.711Z,95588.88
2022-10-30T22:34:44.602Z,95589.72
2022-10-30T22:37:24.603Z,95586.31
2022-10-30T22:40:18.615Z,95590.53
2022-10-30T22:43:05.671Z,95598.25
2022-10-30T22:45:45.634Z,95594.84
2022-10-30T22:48:39.604Z,95590.63
2022-10-30T22:51:27.744Z,95598.31
2022-10-30T22:54:10.634Z,95597.47
2022-10-30T22:56:57.631Z,95601.75
2022-10-30T22:59:30.697Z,95600.06
2022-10-30T23:02:17.629Z,95594.09
2022-10-30T23:04:57.643Z,95590.72
2022-10-30T23:07:51.624Z,95589.88
2022-10-30T23:10:38.612Z,95600.09
2022-10-30T23:13:11.750Z,95602.66
2022-10-30T23:16:00.665Z,95598.41
2022-10-30T23:18:42.644Z,95601.78
2022-10-30T23:21:38.639Z,95603.53
2022-10-30T23:24:25.645Z,95601.84
2022-10-30T23:26:59.761Z,95612.03
2022-10-30T23:29:46.627Z,95608.63
2022-10-30T23:32:26.655Z,95615.44
2022-10-30T23:35:13.624Z,95608.66
2022-10-30T23:37:53.646Z,95618.84
2022-10-30T23:40:47.646Z,95607.81
2022-10-30T23:43:41.657Z,95615.47
2022-10-30T23:46:29.640Z,95609.50
2022-10-30T23:49:02.700Z,95624.00
2022-10-30T23:51:49.654Z,95622.31
2022-10-30T23:54:22.716Z,95624.88
2022-10-30T23:57:09.651Z,95620.63
2022-10-30T23:59:42.715Z,95613.81
